createdAt,value
2024-03-12T00:00:46.066Z,8.10
2024-03-12T00:03:16.492Z,8.10
2024-03-12T00:05:45.091Z,8.10
2024-03-12T00:08:15.435Z,8.10
2024-03-12T00:10:48.102Z,8.10
2024-03-12T00:13:16.739Z,8.10
2024-03-12T00:15:45.123Z,8.10
2024-03-12T00:18:14.152Z,8.10
2024-03-12T00:20:46.346Z,8.10
2024-03-12T00:23:16.355Z,8.10
2024-03-12T00:25:45.036Z,8.10
2024-03-12T00:28:13.268Z,8.00
2024-03-12T00:30:43.139Z,8.10
2024-03-12T00:33:11.468Z,8.10
2024-03-12T00:35:45.154Z,8.10
2024-03-12T00:38:15.040Z,8.00
2024-03-12T00:40:44.003Z,8.10
2024-03-12T00:43:13.334Z,8.00
2024-03-12T00:45:42.981Z,8.00
2024-03-12T00:48:15.390Z,8.00
2024-03-12T00:50:46.551Z,8.10
2024-03-12T00:53:21.146Z,8.00
2024-03-12T00:55:51.178Z,8.00
2024-03-12T00:58:25.177Z,8.00
2024-03-12T01:00:54.846Z,8.00
2024-03-12T01:03:26.206Z,8.00
2024-03-12T01:05:54.925Z,8.00
2024-03-12T01:08:25.098Z,8.00
2024-03-12T01:10:56.094Z,8.00
2024-03-12T01:13:26.116Z,8.00
2024-03-12T01:15:55.343Z,7.90
2024-03-12T01:18:31.307Z,7.90
2024-03-12T01:21:04.699Z,7.90
2024-03-12T01:23:39.261Z,7.90
2024-03-12T01:26:09.887Z,7.90
2024-03-12T01:28:42.383Z,7.90
2024-03-12T01:31:11.889Z,7.90
2024-03-12T01:33:42.142Z,7.90
2024-03-12T01:36:21.817Z,7.90
2024-03-12T01:38:55.934Z,7.90
2024-03-12T01:41:24.865Z,7.90
2024-03-12T01:44:01.119Z,7.90
2024-03-12T01:46:31.814Z,7.90
2024-03-12T01:49:02.293Z,7.90
2024-03-12T01:51:31.661Z,8.00
2024-03-12T01:54:08.475Z,7.90
2024-03-12T01:56:37.299Z,8.00
2024-03-12T01:59:07.300Z,8.00
2024-03-12T02:01:38.339Z,8.00
2024-03-12T02:04:10.352Z,8.00
2024-03-12T02:09:34.055Z,8.00
2024-03-12T02:12:06.515Z,7.90
2024-03-12T02:14:36.829Z,7.90
2024-03-12T02:17:07.060Z,8.00
2024-03-12T02:19:42.115Z,8.00
2024-03-12T02:22:38.921Z,8.00
2024-03-12T02:25:12.363Z,8.00
2024-03-12T02:27:42.291Z,8.00
2024-03-12T02:30:13.474Z,8.00
2024-03-12T02:32:41.689Z,8.00
2024-03-12T02:35:12.134Z,8.00
2024-03-12T02:37:45.554Z,8.00
2024-03-12T02:40:16.652Z,8.00
2024-03-12T02:42:47.155Z,8.00
2024-03-12T02:45:17.667Z,7.90
2024-03-12T02:47:49.313Z,7.90
2024-03-12T02:50:18.026Z,7.90
2024-03-12T02:52:47.299Z,7.90
2024-03-12T02:55:17.412Z,7.90
2024-03-12T02:57:50.160Z,7.90
2024-03-12T03:00:18.677Z,8.00
2024-03-12T03:02:47.215Z,8.00
2024-03-12T03:05:17.164Z,8.00
2024-03-12T03:07:45.315Z,8.00
2024-03-12T03:10:19.241Z,8.00
2024-03-12T03:12:47.511Z,8.00
2024-03-12T03:15:17.099Z,8.00
2024-03-12T03:17:47.258Z,8.00
2024-03-12T03:20:20.117Z,8.00
2024-03-12T03:22:48.235Z,8.00
2024-03-12T03:25:16.952Z,8.00
2024-03-12T03:27:48.135Z,8.00
2024-03-12T03:30:19.598Z,8.00
2024-03-12T03:32:49.761Z,8.00
2024-03-12T03:35:19.583Z,8.00
2024-03-12T03:37:49.963Z,8.00
2024-03-12T03:40:25.042Z,8.00
2024-03-12T03:43:01.519Z,8.00
2024-03-12T03:45:29.700Z,8.00
2024-03-12T03:47:58.167Z,8.00
2024-03-12T03:50:31.289Z,8.00
2024-03-12T03:53:03.834Z,8.00
2024-03-12T03:55:33.244Z,8.00
2024-03-12T03:58:07.363Z,7.90
2024-03-12T04:00:40.990Z,7.90
2024-03-12T04:03:12.186Z,7.90
2024-03-12T04:05:42.598Z,7.90
2024-03-12T04:08:13.211Z,7.90
2024-03-12T04:10:44.689Z,7.90
2024-03-12T04:13:16.718Z,7.90
2024-03-12T04:15:46.486Z,7.90
2024-03-12T04:18:14.958Z,7.90
2024-03-12T04:20:46.418Z,7.90
2024-03-12T04:23:14.545Z,7.90
2024-03-12T04:25:45.210Z,7.90
2024-03-12T04:28:17.672Z,7.90
2024-03-12T04:30:47.252Z,7.90
2024-03-12T04:33:15.718Z,7.90
2024-03-12T04:35:44.395Z,7.90
2024-03-12T04:38:15.293Z,7.90
2024-03-12T04:40:49.132Z,7.90
2024-03-12T04:43:20.207Z,7.90
2024-03-12T04:45:53.302Z,7.90
2024-03-12T04:48:22.746Z,8.00
2024-03-12T04:50:51.072Z,8.00
2024-03-12T04:53:21.575Z,7.90
2024-03-12T04:55:52.293Z,7.90
2024-03-12T04:58:22.727Z,7.90
2024-03-12T05:00:50.928Z,7.90
2024-03-12T05:03:21.150Z,7.90
2024-03-12T05:05:53.433Z,7.90
2024-03-12T05:08:21.673Z,7.90
2024-03-12T05:10:49.889Z,7.90
2024-03-12T05:13:18.654Z,7.90
2024-03-12T05:15:48.195Z,7.90
2024-03-12T05:18:16.455Z,7.90
2024-03-12T05:20:44.684Z,7.90
2024-03-12T05:23:13.223Z,7.90
2024-03-12T05:25:42.415Z,7.90
2024-03-12T05:28:11.784Z,7.90
2024-03-12T05:30:42.284Z,7.90
2024-03-12T05:33:15.749Z,7.80
2024-03-12T05:35:48.821Z,7.90
2024-03-12T05:38:33.905Z,7.90
2024-03-12T05:41:26.582Z,7.90
2024-03-12T05:44:12.302Z,7.90
2024-03-12T05:47:06.271Z,7.90
2024-03-12T05:49:35.915Z,7.90
2024-03-12T05:52:06.289Z,7.90
2024-03-12T05:54:35.197Z,7.90
2024-03-12T05:57:04.172Z,7.90
2024-03-12T05:59:32.406Z,7.90
2024-03-12T06:02:01.020Z,7.90
2024-03-12T06:04:33.359Z,7.90
2024-03-12T06:07:03.358Z,7.90
2024-03-12T06:09:31.858Z,7.80
2024-03-12T06:11:59.997Z,7.80
2024-03-12T06:14:29.499Z,7.80
2024-03-12T06:16:57.891Z,7.90
2024-03-12T06:19:28.447Z,7.80
2024-03-12T06:21:56.805Z,7.90
2024-03-12T06:24:26.354Z,7.90
2024-03-12T06:26:57.269Z,7.90
2024-03-12T06:29:26.037Z,7.90
2024-03-12T06:31:57.182Z,7.90
2024-03-12T06:34:28.269Z,7.90
2024-03-12T06:36:59.184Z,7.90
2024-03-12T06:39:32.777Z,7.90
2024-03-12T06:42:05.071Z,7.90
2024-03-12T06:44:41.443Z,8.00
2024-03-12T06:47:10.782Z,8.00
2024-03-12T06:49:40.132Z,8.00
2024-03-12T06:52:09.297Z,8.00
2024-03-12T06:54:38.943Z,8.00
2024-03-12T06:57:12.212Z,8.00
2024-03-12T06:59:42.285Z,8.00
2024-03-12T07:02:11.339Z,8.00
2024-03-12T07:04:44.909Z,8.10
2024-03-12T07:07:14.800Z,8.00
2024-03-12T07:09:45.493Z,8.10
2024-03-12T07:12:17.779Z,8.10
2024-03-12T07:14:59.373Z,8.10
2024-03-12T07:17:31.555Z,8.10
2024-03-12T07:20:01.209Z,8.00
2024-03-12T07:22:33.615Z,8.10
2024-03-12T07:25:03.258Z,8.10
2024-03-12T07:27:32.346Z,8.10
2024-03-12T07:30:02.215Z,8.10
2024-03-12T07:32:31.485Z,8.10
2024-03-12T07:35:02.211Z,8.10
2024-03-12T07:37:30.851Z,8.10
2024-03-12T07:39:59.099Z,8.20
2024-03-12T07:42:28.752Z,8.20
2024-03-12T07:44:58.619Z,8.20
2024-03-12T07:47:32.070Z,8.20
2024-03-12T07:50:01.302Z,8.20
2024-03-12T07:52:29.557Z,8.20
2024-03-12T07:54:58.052Z,8.30
2024-03-12T07:57:28.393Z,8.30
2024-03-12T07:59:59.234Z,8.30
2024-03-12T08:02:28.350Z,8.30
2024-03-12T08:04:57.869Z,8.30
2024-03-12T08:07:26.140Z,8.40
2024-03-12T08:09:54.411Z,8.30
2024-03-12T08:12:24.223Z,8.40
2024-03-12T08:14:58.999Z,8.40
2024-03-12T08:17:29.993Z,8.40
2024-03-12T08:20:02.259Z,8.50
2024-03-12T08:22:30.401Z,8.40
2024-03-12T08:24:59.597Z,8.50
2024-03-12T08:27:28.407Z,8.40
2024-03-12T08:29:58.735Z,8.50
2024-03-12T08:32:30.649Z,8.50
2024-03-12T08:34:58.894Z,8.50
2024-03-12T08:37:29.228Z,8.50
2024-03-12T08:39:58.733Z,8.50
2024-03-12T08:42:28.001Z,8.50
2024-03-12T08:44:58.654Z,8.50
2024-03-12T08:47:26.877Z,8.50
2024-03-12T08:49:55.083Z,8.60
2024-03-12T08:52:23.304Z,8.60
2024-03-12T08:54:51.583Z,8.60
2024-03-12T08:57:20.438Z,8.60
2024-03-12T08:59:51.950Z,8.60
2024-03-12T09:02:22.293Z,8.60
2024-03-12T09:04:50.730Z,8.60
2024-03-12T09:07:21.007Z,8.60
2024-03-12T09:09:52.278Z,8.60
2024-03-12T09:12:22.396Z,8.70
2024-03-12T09:14:51.051Z,8.60
2024-03-12T09:17:19.928Z,8.60
2024-03-12T09:19:50.816Z,8.70
2024-03-12T09:22:19.072Z,8.70
2024-03-12T09:24:48.684Z,8.70
2024-03-12T09:27:18.272Z,8.80
2024-03-12T09:29:46.465Z,8.80
2024-03-12T09:32:15.341Z,8.80
2024-03-12T09:34:43.640Z,8.80
2024-03-12T09:37:16.065Z,8.80
2024-03-12T09:39:45.581Z,8.90
2024-03-12T09:42:16.343Z,8.90
2024-03-12T09:44:44.845Z,8.90
2024-03-12T09:47:14.126Z,8.90
2024-03-12T09:49:45.288Z,8.90
2024-03-12T09:52:15.095Z,9.00
2024-03-12T09:54:44.040Z,9.00
2024-03-12T09:57:13.464Z,9.00
2024-03-12T09:59:42.209Z,9.00
2024-03-12T10:02:12.143Z,9.00
2024-03-12T10:04:40.610Z,9.00
2024-03-12T10:07:11.445Z,9.10
2024-03-12T10:09:42.131Z,9.10
2024-03-12T10:12:15.432Z,9.10
2024-03-12T10:14:46.840Z,9.10
2024-03-12T10:17:16.268Z,9.10
2024-03-12T10:19:48.774Z,9.10
2024-03-12T10:22:22.044Z,9.10
2024-03-12T10:24:57.448Z,9.10
2024-03-12T10:27:25.729Z,9.10
2024-03-12T10:29:54.040Z,9.20
2024-03-12T10:32:25.797Z,9.20
2024-03-12T10:34:58.743Z,9.20
2024-03-12T10:37:29.326Z,9.30
2024-03-12T10:40:16.387Z,9.30
2024-03-12T10:42:54.939Z,9.30
2024-03-12T10:45:23.934Z,9.40
2024-03-12T10:47:52.616Z,9.40
2024-03-12T10:50:25.298Z,9.40
2024-03-12T10:52:56.538Z,9.40
2024-03-12T10:55:26.831Z,9.50
2024-03-12T10:58:00.671Z,9.50
2024-03-12T11:00:29.832Z,9.50
2024-03-12T11:02:59.093Z,9.50
2024-03-12T11:05:34.349Z,9.50
2024-03-12T11:08:04.773Z,9.50
2024-03-12T11:10:36.316Z,9.50
2024-03-12T11:13:06.942Z,9.60
2024-03-12T11:15:37.420Z,9.60
2024-03-12T11:18:06.755Z,9.60
2024-03-12T11:20:41.696Z,9.60
2024-03-12T11:23:11.920Z,9.60
2024-03-12T11:25:51.184Z,9.70
2024-03-12T11:28:21.908Z,9.70
2024-03-12T11:31:00.609Z,9.70
2024-03-12T11:33:43.522Z,9.60
2024-03-12T11:36:12.142Z,9.60
2024-03-12T11:38:40.234Z,9.70
2024-03-12T11:41:14.303Z,9.70
2024-03-12T11:43:43.086Z,9.70
2024-03-12T11:46:12.104Z,9.70
2024-03-12T11:48:42.176Z,9.70
2024-03-12T11:51:16.748Z,9.70
2024-03-12T11:53:46.680Z,9.80
2024-03-12T11:56:20.155Z,9.70
2024-03-12T11:58:59.558Z,9.70
2024-03-12T12:01:35.301Z,9.70
2024-03-12T12:04:05.906Z,9.70
2024-03-12T12:06:34.728Z,9.70
2024-03-12T12:09:06.470Z,9.70
2024-03-12T12:11:38.416Z,9.70
2024-03-12T12:14:10.266Z,9.70
2024-03-12T12:16:41.427Z,9.70
2024-03-12T12:19:16.316Z,9.70
2024-03-12T12:21:51.023Z,9.70
2024-03-12T12:24:19.426Z,9.70
2024-03-12T12:26:50.353Z,9.70
2024-03-12T12:29:18.989Z,9.70
2024-03-12T12:31:47.134Z,9.70
2024-03-12T12:34:16.336Z,9.70
2024-03-12T12:36:47.420Z,9.70
2024-03-12T12:39:18.492Z,9.80
2024-03-12T12:41:50.127Z,9.80
2024-03-12T12:44:23.681Z,9.80
2024-03-12T12:46:53.547Z,9.80
2024-03-12T12:49:27.535Z,9.80
2024-03-12T12:51:55.841Z,9.70
2024-03-12T12:54:24.576Z,9.70
2024-03-12T12:56:54.219Z,9.70
2024-03-12T12:59:22.470Z,9.70
2024-03-12T13:01:51.326Z,9.70
2024-03-12T13:04:21.680Z,9.70
2024-03-12T13:06:51.469Z,9.70
2024-03-12T13:09:30.599Z,9.70
2024-03-12T13:12:01.614Z,9.70
2024-03-12T13:14:28.922Z,9.70
2024-03-12T13:17:00.583Z,9.70
2024-03-12T13:19:32.013Z,9.70
2024-03-12T13:22:02.694Z,9.70
2024-03-12T13:24:32.484Z,9.70
2024-03-12T13:27:02.199Z,9.70
2024-03-12T13:29:30.413Z,9.70
2024-03-12T13:32:00.363Z,9.70
2024-03-12T13:34:28.955Z,9.70
2024-03-12T13:36:58.918Z,9.70
2024-03-12T13:39:30.786Z,9.70
2024-03-12T13:42:07.690Z,9.70
2024-03-12T13:44:40.057Z,9.70
2024-03-12T13:47:11.846Z,9.70
2024-03-12T13:49:41.510Z,9.70
2024-03-12T13:52:12.069Z,9.70
2024-03-12T13:54:40.996Z,9.70
2024-03-12T13:57:15.261Z,9.80
2024-03-12T13:59:44.233Z,9.80
2024-03-12T14:02:14.760Z,9.80
2024-03-12T14:04:44.175Z,9.80
2024-03-12T14:07:16.242Z,9.80
2024-03-12T14:09:47.616Z,9.80
2024-03-12T14:12:19.150Z,9.80
2024-03-12T14:14:47.462Z,9.80
2024-03-12T14:17:16.384Z,9.80
2024-03-12T14:19:44.553Z,9.80
2024-03-12T14:22:13.419Z,9.80
2024-03-12T14:24:41.643Z,9.80
2024-03-12T14:27:11.255Z,9.80
2024-03-12T14:29:42.509Z,9.80
2024-03-12T14:32:10.690Z,9.80
2024-03-12T14:34:39.072Z,9.90
2024-03-12T14:37:08.130Z,9.80
2024-03-12T14:39:36.374Z,9.80
2024-03-12T14:42:06.474Z,9.80
2024-03-12T14:44:35.618Z,9.80
2024-03-12T14:47:05.848Z,9.80
2024-03-12T14:49:38.175Z,9.80
2024-03-12T14:52:07.851Z,9.80
2024-03-12T14:54:36.158Z,9.80
2024-03-12T14:57:05.668Z,9.80
2024-03-12T14:59:35.213Z,9.70
2024-03-12T15:02:06.125Z,9.70
2024-03-12T15:04:36.766Z,9.70
2024-03-12T15:07:09.196Z,9.70
2024-03-12T15:09:39.197Z,9.70
2024-03-12T15:12:09.869Z,9.70
2024-03-12T15:14:42.259Z,9.70
2024-03-12T15:17:13.461Z,9.70
2024-03-12T15:19:41.676Z,9.70
2024-03-12T15:22:10.945Z,9.70
2024-03-12T15:24:40.225Z,9.70
2024-03-12T15:27:12.132Z,9.60
2024-03-12T15:29:40.387Z,9.60
2024-03-12T15:32:08.891Z,9.60
2024-03-12T15:34:38.537Z,9.60
2024-03-12T15:37:10.457Z,9.60
2024-03-12T15:39:38.811Z,9.60
2024-03-12T15:42:07.436Z,9.60
2024-03-12T15:44:36.410Z,9.60
2024-03-12T15:47:04.693Z,9.50
2024-03-12T15:49:33.121Z,9.50
2024-03-12T15:52:02.657Z,9.50
2024-03-12T15:54:31.529Z,9.50
2024-03-12T15:57:00.548Z,9.50
2024-03-12T15:59:28.808Z,9.50
2024-03-12T16:01:57.423Z,9.50
2024-03-12T16:04:26.336Z,9.40
2024-03-12T16:06:55.230Z,9.40
2024-03-12T16:09:26.560Z,9.40
2024-03-12T16:11:54.929Z,9.40
2024-03-12T16:14:23.328Z,9.40
2024-03-12T16:16:51.461Z,9.40
2024-03-12T16:19:21.422Z,9.30
2024-03-12T16:21:49.716Z,9.30
2024-03-12T16:24:21.501Z,9.30
2024-03-12T16:26:51.099Z,9.30
2024-03-12T16:29:21.174Z,9.30
2024-03-12T16:31:50.754Z,9.30
2024-03-12T16:34:19.125Z,9.30
2024-03-12T16:36:48.506Z,9.30
2024-03-12T16:39:16.724Z,9.30
2024-03-12T16:41:44.920Z,9.30
2024-03-12T16:44:15.550Z,9.20
2024-03-12T16:46:45.208Z,9.20
2024-03-12T16:49:15.151Z,9.20
2024-03-12T16:51:43.505Z,9.20
2024-03-12T16:54:12.863Z,9.20
2024-03-12T16:56:41.586Z,9.20
2024-03-12T16:59:10.371Z,9.20
2024-03-12T17:01:40.716Z,9.20
2024-03-12T17:04:11.858Z,9.20
2024-03-12T17:06:42.624Z,9.10
2024-03-12T17:09:11.986Z,9.20
2024-03-12T17:11:40.651Z,9.10
2024-03-12T17:14:14.932Z,9.10
2024-03-12T17:16:50.147Z,9.10
2024-03-12T17:19:22.646Z,9.10
2024-03-12T17:21:51.813Z,9.10
2024-03-12T17:24:21.569Z,9.10
2024-03-12T17:26:52.543Z,9.10
2024-03-12T17:29:22.562Z,9.10
2024-03-12T17:31:53.465Z,9.10
2024-03-12T17:34:22.552Z,9.00
2024-03-12T17:36:56.217Z,9.00
2024-03-12T17:39:25.061Z,9.10
2024-03-12T17:41:53.776Z,9.00
2024-03-12T17:44:22.466Z,9.00
2024-03-12T17:46:56.028Z,9.00
2024-03-12T17:49:28.587Z,9.00
2024-03-12T17:51:57.562Z,9.00
2024-03-12T17:54:27.008Z,9.00
2024-03-12T17:57:00.385Z,9.00
2024-03-12T17:59:29.034Z,9.00
2024-03-12T18:01:59.276Z,9.00
2024-03-12T18:04:28.769Z,8.90
2024-03-12T18:07:01.866Z,8.90
2024-03-12T18:09:33.015Z,8.90
2024-03-12T18:12:01.703Z,8.90
2024-03-12T18:14:30.652Z,8.90
2024-03-12T18:17:00.286Z,8.90
2024-03-12T18:19:30.383Z,8.90
2024-03-12T18:21:58.945Z,8.90
2024-03-12T18:24:27.062Z,8.90
2024-03-12T18:26:55.303Z,8.90
2024-03-12T18:29:23.861Z,8.90
2024-03-12T18:31:54.540Z,8.90
2024-03-12T18:34:24.674Z,8.90
2024-03-12T18:36:55.967Z,8.90
2024-03-12T18:39:24.196Z,8.90
2024-03-12T18:41:53.969Z,8.90
2024-03-12T18:44:25.341Z,8.80
2024-03-12T18:46:53.875Z,8.80
2024-03-12T18:49:24.364Z,8.80
2024-03-12T18:51:53.970Z,8.80
2024-03-12T18:54:22.690Z,8.80
2024-03-12T18:56:53.961Z,8.80
2024-03-12T18:59:23.072Z,8.80
2024-03-12T19:01:55.049Z,8.80
2024-03-12T19:04:34.766Z,8.80
2024-03-12T19:07:03.427Z,8.80
2024-03-12T19:09:34.648Z,8.70
2024-03-12T19:12:09.275Z,8.70
2024-03-12T19:14:39.824Z,8.70
2024-03-12T19:17:11.358Z,8.70
2024-03-12T19:19:42.577Z,8.70
2024-03-12T19:22:11.899Z,8.70
2024-03-12T19:24:43.521Z,8.70
2024-03-12T19:27:20.391Z,8.70
2024-03-12T19:29:54.680Z,8.70
2024-03-12T19:32:23.427Z,8.70
2024-03-12T19:34:53.927Z,8.70
2024-03-12T19:37:28.264Z,8.70
2024-03-12T19:39:57.149Z,8.70
2024-03-12T19:42:25.753Z,8.70
2024-03-12T19:44:54.412Z,8.70
2024-03-12T19:47:23.782Z,8.60
2024-03-12T19:49:57.500Z,8.60
2024-03-12T19:52:25.766Z,8.60
2024-03-12T19:54:54.012Z,8.60
2024-03-12T19:57:22.585Z,8.60
2024-03-12T19:59:51.032Z,8.60
2024-03-12T20:02:19.245Z,8.60
2024-03-12T20:04:47.787Z,8.60
2024-03-12T20:07:19.234Z,8.60
2024-03-12T20:09:47.541Z,8.60
2024-03-12T20:12:15.741Z,8.60
2024-03-12T20:14:45.189Z,8.60
2024-03-12T20:17:13.599Z,8.60
2024-03-12T20:19:44.855Z,8.50
2024-03-12T20:22:13.256Z,8.50
2024-03-12T20:24:43.005Z,8.50
2024-03-12T20:27:11.273Z,8.50
2024-03-12T20:29:41.578Z,8.50
2024-03-12T20:32:11.864Z,8.50
2024-03-12T20:34:42.603Z,8.50
2024-03-12T20:37:11.077Z,8.50
2024-03-12T20:39:41.263Z,8.50
2024-03-12T20:42:14.533Z,8.50
2024-03-12T20:44:43.186Z,8.50
2024-03-12T20:47:11.710Z,8.50
2024-03-12T20:49:43.788Z,8.40
2024-03-12T20:52:14.666Z,8.40
2024-03-12T20:54:44.516Z,8.40
2024-03-12T20:57:14.032Z,8.40
2024-03-12T20:59:45.314Z,8.40
2024-03-12T21:02:18.221Z,8.40
2024-03-12T21:04:47.255Z,8.40
2024-03-12T21:07:16.532Z,8.40
2024-03-12T21:09:45.565Z,8.40
2024-03-12T21:12:18.545Z,8.40
2024-03-12T21:14:47.312Z,8.40
2024-03-12T21:17:17.359Z,8.40
2024-03-12T21:19:45.566Z,8.40
2024-03-12T21:22:16.773Z,8.30
2024-03-12T21:24:46.468Z,8.30
2024-03-12T21:27:17.884Z,8.30
2024-03-12T21:29:47.614Z,8.30
2024-03-12T21:32:15.838Z,8.30
2024-03-12T21:34:45.547Z,8.30
2024-03-12T21:37:13.732Z,8.30
2024-03-12T21:39:43.093Z,8.30
2024-03-12T21:42:13.534Z,8.30
2024-03-12T21:44:47.463Z,8.30
2024-03-12T21:47:16.037Z,8.30
2024-03-12T21:49:44.604Z,8.30
2024-03-12T21:52:15.146Z,8.30
2024-03-12T21:54:43.324Z,8.20
2024-03-12T21:57:12.433Z,8.20
2024-03-12T21:59:44.652Z,8.20
2024-03-12T22:02:12.898Z,8.20
2024-03-12T22:04:41.437Z,8.20
2024-03-12T22:07:10.493Z,8.20
2024-03-12T22:09:38.651Z,8.20
2024-03-12T22:12:11.270Z,8.20
2024-03-12T22:14:40.216Z,8.20
2024-03-12T22:17:10.915Z,8.20
2024-03-12T22:19:39.569Z,8.20
2024-03-12T22:22:11.468Z,8.20
2024-03-12T22:24:43.599Z,8.20
2024-03-12T22:27:11.886Z,8.10
2024-03-12T22:29:41.659Z,8.10
2024-03-12T22:32:15.381Z,8.10
2024-03-12T22:34:45.650Z,8.20
2024-03-12T22:37:13.940Z,8.20
2024-03-12T22:39:47.592Z,8.10
2024-03-12T22:42:16.628Z,8.10
2024-03-12T22:44:45.786Z,8.10
2024-03-12T22:47:16.098Z,8.10
2024-03-12T22:49:45.579Z,8.10
2024-03-12T22:52:15.692Z,8.10
2024-03-12T22:54:46.048Z,8.10
2024-03-12T22:57:18.966Z,8.10
2024-03-12T22:59:53.583Z,8.10
2024-03-12T23:02:24.941Z,8.10
2024-03-12T23:04:55.594Z,8.10
2024-03-12T23:07:24.688Z,8.10
2024-03-12T23:09:57.019Z,8.00
2024-03-12T23:12:28.280Z,8.10
2024-03-12T23:14:59.556Z,8.10
2024-03-12T23:17:29.021Z,8.00
2024-03-12T23:20:00.904Z,8.00
2024-03-12T23:22:29.906Z,8.00
2024-03-12T23:24:59.046Z,8.00
2024-03-12T23:27:30.598Z,7.90
2024-03-12T23:30:01.394Z,8.00
2024-03-12T23:32:35.686Z,8.00
2024-03-12T23:35:03.903Z,8.00
2024-03-12T23:37:32.760Z,8.00
2024-03-12T23:40:05.605Z,8.00
2024-03-12T23:42:34.758Z,8.00
2024-03-12T23:45:03.454Z,8.00
2024-03-12T23:47:33.187Z,7.90
2024-03-12T23:50:05.808Z,7.90
2024-03-12T23:52:34.124Z,7.90
2024-03-12T23:55:02.480Z,7.90
2024-03-12T23:57:30.603Z,7.90
